sensor_id;sensor_type;location;lat;lon;timestamp;P1;durP1;ratioP1;P2;durP2;ratioP2
37793;SDS011;23632;48.826;15.176;2022-08-19T00:02:12;0.40;;;0.40;;
37793;SDS011;23632;48.826;15.176;2022-08-19T00:04:39;0.40;;;0.40;;
37793;SDS011;23632;48.826;15.176;2022-08-19T00:07:06;0.57;;;0.57;;
37793;SDS011;23632;48.826;15.176;2022-08-19T00:09:34;0.40;;;0.40;;
37793;SDS011;23632;48.826;15.176;2022-08-19T00:12:01;0.40;;;0.40;;
37793;SDS011;23632;48.826;15.176;2022-08-19T00:14:29;0.40;;;0.40;;
37793;SDS011;23632;48.826;15.176;2022-08-19T00:17:00;0.40;;;0.40;;
37793;SDS011;23632;48.826;15.176;2022-08-19T00:19:29;0.40;;;0.40;;
37793;SDS011;23632;48.826;15.176;2022-08-19T00:21:57;0.40;;;0.40;;
37793;SDS011;23632;48.826;15.176;2022-08-19T00:24:25;0.30;;;0.30;;
37793;SDS011;23632;48.826;15.176;2022-08-19T00:26:55;0.30;;;0.30;;
37793;SDS011;23632;48.826;15.176;2022-08-19T00:29:43;0.40;;;0.40;;
37793;SDS011;23632;48.826;15.176;2022-08-19T00:32:17;0.40;;;0.40;;
37793;SDS011;23632;48.826;15.176;2022-08-19T00:34:45;0.40;;;0.40;;
37793;SDS011;23632;48.826;15.176;2022-08-19T00:37:12;0.35;;;0.35;;
37793;SDS011;23632;48.826;15.176;2022-08-19T00:39:39;0.40;;;0.40;;
37793;SDS011;23632;48.826;15.176;2022-08-19T00:42:06;0.40;;;0.40;;
37793;SDS011;23632;48.826;15.176;2022-08-19T00:44:34;0.40;;;0.40;;
37793;SDS011;23632;48.826;15.176;2022-08-19T00:47:02;0.40;;;0.40;;
37793;SDS011;23632;48.826;15.176;2022-08-19T00:49:43;0.40;;;0.40;;
37793;SDS011;23632;48.826;15.176;2022-08-19T00:52:20;0.40;;;0.40;;
37793;SDS011;23632;48.826;15.176;2022-08-19T00:54:55;0.40;;;0.40;;
37793;SDS011;23632;48.826;15.176;2022-08-19T00:57:27;0.40;;;0.40;;
37793;SDS011;23632;48.826;15.176;2022-08-19T00:59:59;0.30;;;0.30;;
37793;SDS011;23632;48.826;15.176;2022-08-19T01:02:29;0.40;;;0.40;;
37793;SDS011;23632;48.826;15.176;2022-08-19T01:04:57;0.40;;;0.40;;
37793;SDS011;23632;48.826;15.176;2022-08-19T01:07:27;0.40;;;0.40;;
37793;SDS011;23632;48.826;15.176;2022-08-19T01:10:03;0.40;;;0.40;;
37793;SDS011;23632;48.826;15.176;2022-08-19T01:12:37;0.40;;;0.40;;
37793;SDS011;23632;48.826;15.176;2022-08-19T01:15:06;0.40;;;0.40;;
37793;SDS011;23632;48.826;15.176;2022-08-19T01:17:38;0.40;;;0.40;;
37793;SDS011;23632;48.826;15.176;2022-08-19T01:20:09;0.40;;;0.40;;
37793;SDS011;23632;48.826;15.176;2022-08-19T01:22:50;0.40;;;0.40;;
37793;SDS011;23632;48.826;15.176;2022-08-19T01:25:25;0.40;;;0.40;;
37793;SDS011;23632;48.826;15.176;2022-08-19T01:27:58;0.43;;;0.43;;
37793;SDS011;23632;48.826;15.176;2022-08-19T01:30:36;0.43;;;0.43;;
37793;SDS011;23632;48.826;15.176;2022-08-19T01:33:03;0.30;;;0.30;;
37793;SDS011;23632;48.826;15.176;2022-08-19T01:35:32;0.40;;;0.40;;
37793;SDS011;23632;48.826;15.176;2022-08-19T01:38:00;0.38;;;0.38;;
37793;SDS011;23632;48.826;15.176;2022-08-19T01:40:35;0.40;;;0.40;;
37793;SDS011;23632;48.826;15.176;2022-08-19T01:43:05;0.40;;;0.40;;
37793;SDS011;23632;48.826;15.176;2022-08-19T01:45:33;0.40;;;0.40;;
37793;SDS011;23632;48.826;15.176;2022-08-19T01:48:03;0.45;;;0.45;;
37793;SDS011;23632;48.826;15.176;2022-08-19T01:50:31;0.40;;;0.40;;
37793;SDS011;23632;48.826;15.176;2022-08-19T01:53:01;0.30;;;0.30;;
37793;SDS011;23632;48.826;15.176;2022-08-19T01:55:34;0.40;;;0.40;;
37793;SDS011;23632;48.826;15.176;2022-08-19T01:58:07;0.40;;;0.40;;
37793;SDS011;23632;48.826;15.176;2022-08-19T02:00:40;0.40;;;0.40;;
37793;SDS011;23632;48.826;15.176;2022-08-19T02:03:08;0.40;;;0.40;;
37793;SDS011;23632;48.826;15.176;2022-08-19T02:05:37;0.30;;;0.30;;
37793;SDS011;23632;48.826;15.176;2022-08-19T02:08:08;0.40;;;0.40;;
37793;SDS011;23632;48.826;15.176;2022-08-19T02:10:38;0.32;;;0.32;;
37793;SDS011;23632;48.826;15.176;2022-08-19T02:13:09;0.40;;;0.40;;
37793;SDS011;23632;48.826;15.176;2022-08-19T02:15:38;0.40;;;0.40;;
37793;SDS011;23632;48.826;15.176;2022-08-19T02:18:06;0.40;;;0.40;;
37793;SDS011;23632;48.826;15.176;2022-08-19T02:20:35;0.35;;;0.35;;
37793;SDS011;23632;48.826;15.176;2022-08-19T02:23:03;0.30;;;0.30;;
37793;SDS011;23632;48.826;15.176;2022-08-19T02:25:38;0.40;;;0.40;;
37793;SDS011;23632;48.826;15.176;2022-08-19T02:28:06;0.40;;;0.40;;
37793;SDS011;23632;48.826;15.176;2022-08-19T02:30:34;0.50;;;0.50;;
37793;SDS011;23632;48.826;15.176;2022-08-19T02:33:01;0.40;;;0.40;;
37793;SDS011;23632;48.826;15.176;2022-08-19T02:35:28;0.40;;;0.40;;
37793;SDS011;23632;48.826;15.176;2022-08-19T02:37:55;0.40;;;0.40;;
37793;SDS011;23632;48.826;15.176;2022-08-19T02:40:47;0.43;;;0.43;;
37793;SDS011;23632;48.826;15.176;2022-08-19T02:43:18;0.45;;;0.45;;
37793;SDS011;23632;48.826;15.176;2022-08-19T02:45:49;0.40;;;0.40;;
37793;SDS011;23632;48.826;15.176;2022-08-19T02:48:21;0.43;;;0.43;;
37793;SDS011;23632;48.826;15.176;2022-08-19T02:50:51;0.40;;;0.40;;
37793;SDS011;23632;48.826;15.176;2022-08-19T02:53:22;0.40;;;0.40;;
37793;SDS011;23632;48.826;15.176;2022-08-19T02:55:53;0.40;;;0.40;;
37793;SDS011;23632;48.826;15.176;2022-08-19T02:58:21;0.40;;;0.40;;
37793;SDS011;23632;48.826;15.176;2022-08-19T03:00:52;0.40;;;0.40;;
37793;SDS011;23632;48.826;15.176;2022-08-19T03:03:22;0.30;;;0.30;;
37793;SDS011;23632;48.826;15.176;2022-08-19T03:05:49;0.40;;;0.40;;
37793;SDS011;23632;48.826;15.176;2022-08-19T03:08:23;0.43;;;0.43;;
37793;SDS011;23632;48.826;15.176;2022-08-19T03:10:52;0.40;;;0.40;;
37793;SDS011;23632;48.826;15.176;2022-08-19T03:13:20;0.40;;;0.40;;
37793;SDS011;23632;48.826;15.176;2022-08-19T03:15:47;0.40;;;0.40;;
37793;SDS011;23632;48.826;15.176;2022-08-19T03:18:15;0.50;;;0.50;;
37793;SDS011;23632;48.826;15.176;2022-08-19T03:20:44;0.40;;;0.40;;
37793;SDS011;23632;48.826;15.176;2022-08-19T03:23:15;0.40;;;0.40;;
37793;SDS011;23632;48.826;15.176;2022-08-19T03:25:44;0.40;;;0.40;;
37793;SDS011;23632;48.826;15.176;2022-08-19T03:28:31;0.40;;;0.40;;
37793;SDS011;23632;48.826;15.176;2022-08-19T03:31:04;0.40;;;0.40;;
37793;SDS011;23632;48.826;15.176;2022-08-19T03:33:58;0.50;;;0.50;;
37793;SDS011;23632;48.826;15.176;2022-08-19T03:36:26;0.40;;;0.40;;
37793;SDS011;23632;48.826;15.176;2022-08-19T03:38:56;0.40;;;0.40;;
37793;SDS011;23632;48.826;15.176;2022-08-19T03:41:30;0.40;;;0.40;;
37793;SDS011;23632;48.826;15.176;2022-08-19T03:44:15;0.40;;;0.40;;
37793;SDS011;23632;48.826;15.176;2022-08-19T03:46:49;0.43;;;0.43;;
37793;SDS011;23632;48.826;15.176;2022-08-19T03:49:20;0.40;;;0.40;;
37793;SDS011;23632;48.826;15.176;2022-08-19T03:51:54;0.32;;;0.32;;
37793;SDS011;23632;48.826;15.176;2022-08-19T03:54:24;0.40;;;0.40;;
37793;SDS011;23632;48.826;15.176;2022-08-19T03:56:52;0.50;;;0.50;;
37793;SDS011;23632;48.826;15.176;2022-08-19T03:59:23;0.40;;;0.40;;
37793;SDS011;23632;48.826;15.176;2022-08-19T04:01:59;0.40;;;0.40;;
37793;SDS011;23632;48.826;15.176;2022-08-19T04:04:36;0.40;;;0.40;;
37793;SDS011;23632;48.826;15.176;2022-08-19T04:07:04;0.40;;;0.40;;
37793;SDS011;23632;48.826;15.176;2022-08-19T04:09:33;0.40;;;0.40;;
37793;SDS011;23632;48.826;15.176;2022-08-19T04:12:00;0.40;;;0.40;;
37793;SDS011;23632;48.826;15.176;2022-08-19T04:14:29;0.40;;;0.40;;
37793;SDS011;23632;48.826;15.176;2022-08-19T04:16:57;0.40;;;0.40;;
37793;SDS011;23632;48.826;15.176;2022-08-19T04:19:26;0.40;;;0.40;;
37793;SDS011;23632;48.826;15.176;2022-08-19T04:21:55;0.30;;;0.30;;
37793;SDS011;23632;48.826;15.176;2022-08-19T04:24:22;0.40;;;0.40;;
37793;SDS011;23632;48.826;15.176;2022-08-19T04:26:50;0.45;;;0.45;;
37793;SDS011;23632;48.826;15.176;2022-08-19T04:29:19;0.40;;;0.40;;
37793;SDS011;23632;48.826;15.176;2022-08-19T04:31:52;0.40;;;0.40;;
37793;SDS011;23632;48.826;15.176;2022-08-19T04:34:22;0.43;;;0.43;;
37793;SDS011;23632;48.826;15.176;2022-08-19T04:36:53;0.40;;;0.40;;
37793;SDS011;23632;48.826;15.176;2022-08-19T04:39:23;0.40;;;0.40;;
37793;SDS011;23632;48.826;15.176;2022-08-19T04:42:18;0.40;;;0.40;;
37793;SDS011;23632;48.826;15.176;2022-08-19T04:45:04;0.30;;;0.30;;
37793;SDS011;23632;48.826;15.176;2022-08-19T04:47:40;0.40;;;0.40;;
37793;SDS011;23632;48.826;15.176;2022-08-19T04:50:24;0.30;;;0.30;;
37793;SDS011;23632;48.826;15.176;2022-08-19T04:52:52;0.40;;;0.40;;
37793;SDS011;23632;48.826;15.176;2022-08-19T04:55:21;0.40;;;0.40;;
37793;SDS011;23632;48.826;15.176;2022-08-19T04:57:51;0.40;;;0.40;;
37793;SDS011;23632;48.826;15.176;2022-08-19T05:00:20;0.40;;;0.40;;
37793;SDS011;23632;48.826;15.176;2022-08-19T05:02:47;0.40;;;0.40;;
37793;SDS011;23632;48.826;15.176;2022-08-19T05:05:15;0.50;;;0.50;;
37793;SDS011;23632;48.826;15.176;2022-08-19T05:07:43;0.40;;;0.40;;
37793;SDS011;23632;48.826;15.176;2022-08-19T05:10:10;0.40;;;0.40;;
37793;SDS011;23632;48.826;15.176;2022-08-19T05:12:39;0.40;;;0.40;;
37793;SDS011;23632;48.826;15.176;2022-08-19T05:15:06;0.38;;;0.38;;
37793;SDS011;23632;48.826;15.176;2022-08-19T05:17:34;0.40;;;0.40;;
37793;SDS011;23632;48.826;15.176;2022-08-19T05:20:06;0.40;;;0.40;;
37793;SDS011;23632;48.826;15.176;2022-08-19T05:22:53;0.35;;;0.35;;
37793;SDS011;23632;48.826;15.176;2022-08-19T05:25:20;0.40;;;0.40;;
37793;SDS011;23632;48.826;15.176;2022-08-19T05:27:48;0.30;;;0.30;;
37793;SDS011;23632;48.826;15.176;2022-08-19T05:30:16;0.30;;;0.30;;
37793;SDS011;23632;48.826;15.176;2022-08-19T05:32:49;0.40;;;0.40;;
37793;SDS011;23632;48.826;15.176;2022-08-19T05:35:19;0.30;;;0.30;;
37793;SDS011;23632;48.826;15.176;2022-08-19T05:37:46;0.47;;;0.47;;
37793;SDS011;23632;48.826;15.176;2022-08-19T05:40:20;0.40;;;0.40;;
37793;SDS011;23632;48.826;15.176;2022-08-19T05:42:47;0.40;;;0.40;;
37793;SDS011;23632;48.826;15.176;2022-08-19T05:45:20;0.50;;;0.50;;
37793;SDS011;23632;48.826;15.176;2022-08-19T05:47:48;0.45;;;0.45;;
37793;SDS011;23632;48.826;15.176;2022-08-19T05:50:15;0.32;;;0.32;;
37793;SDS011;23632;48.826;15.176;2022-08-19T05:52:43;0.35;;;0.35;;
37793;SDS011;23632;48.826;15.176;2022-08-19T05:55:15;0.30;;;0.30;;
37793;SDS011;23632;48.826;15.176;2022-08-19T05:57:42;0.30;;;0.30;;
37793;SDS011;23632;48.826;15.176;2022-08-19T06:00:09;0.40;;;0.40;;
37793;SDS011;23632;48.826;15.176;2022-08-19T06:02:38;0.30;;;0.30;;
37793;SDS011;23632;48.826;15.176;2022-08-19T06:05:07;0.40;;;0.40;;
37793;SDS011;23632;48.826;15.176;2022-08-19T06:07:36;0.40;;;0.40;;
37793;SDS011;23632;48.826;15.176;2022-08-19T06:10:05;0.30;;;0.30;;
37793;SDS011;23632;48.826;15.176;2022-08-19T06:12:36;0.30;;;0.30;;
37793;SDS011;23632;48.826;15.176;2022-08-19T06:15:06;0.40;;;0.40;;
37793;SDS011;23632;48.826;15.176;2022-08-19T06:17:37;0.30;;;0.30;;
37793;SDS011;23632;48.826;15.176;2022-08-19T06:20:05;0.35;;;0.35;;
37793;SDS011;23632;48.826;15.176;2022-08-19T06:22:38;0.40;;;0.40;;
37793;SDS011;23632;48.826;15.176;2022-08-19T06:25:08;0.45;;;0.45;;
37793;SDS011;23632;48.826;15.176;2022-08-19T06:27:36;0.40;;;0.40;;
37793;SDS011;23632;48.826;15.176;2022-08-19T06:30:24;0.30;;;0.30;;
37793;SDS011;23632;48.826;15.176;2022-08-19T06:32:51;0.30;;;0.30;;
37793;SDS011;23632;48.826;15.176;2022-08-19T06:35:19;0.35;;;0.35;;
37793;SDS011;23632;48.826;15.176;2022-08-19T06:37:46;0.40;;;0.40;;
37793;SDS011;23632;48.826;15.176;2022-08-19T06:40:13;0.40;;;0.40;;
37793;SDS011;23632;48.826;15.176;2022-08-19T06:42:40;0.40;;;0.40;;
37793;SDS011;23632;48.826;15.176;2022-08-19T06:45:20;0.20;;;0.20;;
37793;SDS011;23632;48.826;15.176;2022-08-19T06:47:59;0.40;;;0.40;;
37793;SDS011;23632;48.826;15.176;2022-08-19T06:50:26;0.40;;;0.40;;
37793;SDS011;23632;48.826;15.176;2022-08-19T06:52:54;0.40;;;0.40;;
37793;SDS011;23632;48.826;15.176;2022-08-19T06:55:21;0.40;;;0.40;;
37793;SDS011;23632;48.826;15.176;2022-08-19T06:57:49;0.30;;;0.30;;
37793;SDS011;23632;48.826;15.176;2022-08-19T07:00:19;0.40;;;0.40;;
37793;SDS011;23632;48.826;15.176;2022-08-19T07:02:47;0.40;;;0.40;;
37793;SDS011;23632;48.826;15.176;2022-08-19T07:05:22;0.30;;;0.30;;
37793;SDS011;23632;48.826;15.176;2022-08-19T07:07:49;0.38;;;0.38;;
37793;SDS011;23632;48.826;15.176;2022-08-19T07:10:16;0.30;;;0.30;;
37793;SDS011;23632;48.826;15.176;2022-08-19T07:12:44;0.30;;;0.30;;
37793;SDS011;23632;48.826;15.176;2022-08-19T07:15:12;0.30;;;0.30;;
37793;SDS011;23632;48.826;15.176;2022-08-19T07:17:40;0.30;;;0.30;;
37793;SDS011;23632;48.826;15.176;2022-08-19T07:20:10;0.40;;;0.40;;
37793;SDS011;23632;48.826;15.176;2022-08-19T07:22:37;0.40;;;0.40;;
37793;SDS011;23632;48.826;15.176;2022-08-19T07:25:06;0.30;;;0.30;;
37793;SDS011;23632;48.826;15.176;2022-08-19T07:27:36;0.30;;;0.30;;
37793;SDS011;23632;48.826;15.176;2022-08-19T07:30:06;0.32;;;0.32;;
37793;SDS011;23632;48.826;15.176;2022-08-19T07:32:37;0.30;;;0.30;;
37793;SDS011;23632;48.826;15.176;2022-08-19T07:35:06;0.50;;;0.50;;
37793;SDS011;23632;48.826;15.176;2022-08-19T07:37:35;0.30;;;0.30;;
37793;SDS011;23632;48.826;15.176;2022-08-19T07:40:04;0.30;;;0.30;;
37793;SDS011;23632;48.826;15.176;2022-08-19T07:42:34;0.40;;;0.40;;
37793;SDS011;23632;48.826;15.176;2022-08-19T07:45:01;0.30;;;0.30;;
37793;SDS011;23632;48.826;15.176;2022-08-19T07:47:30;0.30;;;0.30;;
37793;SDS011;23632;48.826;15.176;2022-08-19T07:50:16;0.30;;;0.30;;
37793;SDS011;23632;48.826;15.176;2022-08-19T07:52:48;0.20;;;0.20;;
37793;SDS011;23632;48.826;15.176;2022-08-19T07:55:18;0.50;;;0.50;;
37793;SDS011;23632;48.826;15.176;2022-08-19T07:58:08;0.30;;;0.30;;
37793;SDS011;23632;48.826;15.176;2022-08-19T08:00:40;0.30;;;0.30;;
37793;SDS011;23632;48.826;15.176;2022-08-19T08:03:10;0.50;;;0.50;;
37793;SDS011;23632;48.826;15.176;2022-08-19T08:05:39;0.30;;;0.30;;
37793;SDS011;23632;48.826;15.176;2022-08-19T08:08:25;0.30;;;0.30;;
37793;SDS011;23632;48.826;15.176;2022-08-19T08:11:02;0.50;;;0.50;;
37793;SDS011;23632;48.826;15.176;2022-08-19T08:13:33;0.30;;;0.30;;
37793;SDS011;23632;48.826;15.176;2022-08-19T08:16:01;0.30;;;0.30;;
37793;SDS011;23632;48.826;15.176;2022-08-19T08:18:29;0.40;;;0.40;;
37793;SDS011;23632;48.826;15.176;2022-08-19T08:20:57;0.30;;;0.30;;
37793;SDS011;23632;48.826;15.176;2022-08-19T08:23:25;0.40;;;0.40;;
37793;SDS011;23632;48.826;15.176;2022-08-19T08:25:53;0.30;;;0.30;;
37793;SDS011;23632;48.826;15.176;2022-08-19T08:28:24;0.30;;;0.30;;
37793;SDS011;23632;48.826;15.176;2022-08-19T08:30:55;0.30;;;0.30;;
37793;SDS011;23632;48.826;15.176;2022-08-19T08:33:24;0.30;;;0.30;;
37793;SDS011;23632;48.826;15.176;2022-08-19T08:36:09;0.30;;;0.30;;
37793;SDS011;23632;48.826;15.176;2022-08-19T08:38:37;0.30;;;0.30;;
37793;SDS011;23632;48.826;15.176;2022-08-19T08:44:14;0.30;;;0.30;;
37793;SDS011;23632;48.826;15.176;2022-08-19T08:46:59;0.22;;;0.22;;
37793;SDS011;23632;48.826;15.176;2022-08-19T08:49:53;0.20;;;0.20;;
37793;SDS011;23632;48.826;15.176;2022-08-19T08:52:35;0.30;;;0.30;;
37793;SDS011;23632;48.826;15.176;2022-08-19T08:55:13;0.30;;;0.30;;
37793;SDS011;23632;48.826;15.176;2022-08-19T09:00:19;0.30;;;0.30;;
37793;SDS011;23632;48.826;15.176;2022-08-19T09:02:50;0.20;;;0.20;;
37793;SDS011;23632;48.826;15.176;2022-08-19T09:05:18;0.30;;;0.30;;
37793;SDS011;23632;48.826;15.176;2022-08-19T09:10:56;0.22;;;0.22;;
37793;SDS011;23632;48.826;15.176;2022-08-19T09:13:36;0.20;;;0.20;;
37793;SDS011;23632;48.826;15.176;2022-08-19T09:16:57;0.20;;;0.20;;
37793;SDS011;23632;48.826;15.176;2022-08-19T09:19:26;0.28;;;0.28;;
37793;SDS011;23632;48.826;15.176;2022-08-19T09:21:54;0.30;;;0.30;;
37793;SDS011;23632;48.826;15.176;2022-08-19T09:24:22;0.20;;;0.20;;
37793;SDS011;23632;48.826;15.176;2022-08-19T09:26:56;0.20;;;0.20;;
37793;SDS011;23632;48.826;15.176;2022-08-19T09:29:23;0.30;;;0.30;;
37793;SDS011;23632;48.826;15.176;2022-08-19T09:31:52;0.30;;;0.30;;
37793;SDS011;23632;48.826;15.176;2022-08-19T09:34:19;0.20;;;0.20;;
37793;SDS011;23632;48.826;15.176;2022-08-19T09:36:48;0.20;;;0.20;;
37793;SDS011;23632;48.826;15.176;2022-08-19T09:39:21;0.20;;;0.20;;
37793;SDS011;23632;48.826;15.176;2022-08-19T09:41:48;0.30;;;0.30;;
37793;SDS011;23632;48.826;15.176;2022-08-19T09:44:16;0.30;;;0.30;;
37793;SDS011;23632;48.826;15.176;2022-08-19T09:46:47;0.30;;;0.30;;
37793;SDS011;23632;48.826;15.176;2022-08-19T09:49:18;0.35;;;0.35;;
37793;SDS011;23632;48.826;15.176;2022-08-19T09:51:50;0.22;;;0.22;;
37793;SDS011;23632;48.826;15.176;2022-08-19T09:54:20;0.20;;;0.20;;
37793;SDS011;23632;48.826;15.176;2022-08-19T09:56:50;0.20;;;0.20;;
37793;SDS011;23632;48.826;15.176;2022-08-19T09:59:19;0.25;;;0.25;;
37793;SDS011;23632;48.826;15.176;2022-08-19T10:01:46;0.20;;;0.20;;
37793;SDS011;23632;48.826;15.176;2022-08-19T10:04:14;0.20;;;0.20;;
37793;SDS011;23632;48.826;15.176;2022-08-19T10:06:47;0.20;;;0.20;;
37793;SDS011;23632;48.826;15.176;2022-08-19T10:09:19;0.30;;;0.30;;
37793;SDS011;23632;48.826;15.176;2022-08-19T10:12:00;0.20;;;0.20;;
37793;SDS011;23632;48.826;15.176;2022-08-19T10:14:31;0.30;;;0.30;;
37793;SDS011;23632;48.826;15.176;2022-08-19T10:16:59;0.30;;;0.30;;
37793;SDS011;23632;48.826;15.176;2022-08-19T10:19:43;0.30;;;0.30;;
37793;SDS011;23632;48.826;15.176;2022-08-19T10:22:21;0.30;;;0.30;;
37793;SDS011;23632;48.826;15.176;2022-08-19T10:24:51;0.30;;;0.30;;
37793;SDS011;23632;48.826;15.176;2022-08-19T10:27:19;0.30;;;0.30;;
37793;SDS011;23632;48.826;15.176;2022-08-19T10:29:46;0.20;;;0.20;;
37793;SDS011;23632;48.826;15.176;2022-08-19T10:32:14;0.35;;;0.35;;
37793;SDS011;23632;48.826;15.176;2022-08-19T10:34:41;0.30;;;0.30;;
37793;SDS011;23632;48.826;15.176;2022-08-19T10:37:14;0.30;;;0.30;;
37793;SDS011;23632;48.826;15.176;2022-08-19T10:39:54;0.30;;;0.30;;
37793;SDS011;23632;48.826;15.176;2022-08-19T10:42:21;0.28;;;0.28;;
37793;SDS011;23632;48.826;15.176;2022-08-19T10:44:48;0.30;;;0.30;;
37793;SDS011;23632;48.826;15.176;2022-08-19T10:47:17;0.30;;;0.30;;
37793;SDS011;23632;48.826;15.176;2022-08-19T10:49:54;0.30;;;0.30;;
37793;SDS011;23632;48.826;15.176;2022-08-19T10:52:42;0.30;;;0.30;;
37793;SDS011;23632;48.826;15.176;2022-08-19T10:55:16;0.30;;;0.30;;
37793;SDS011;23632;48.826;15.176;2022-08-19T10:58:14;0.20;;;0.20;;
37793;SDS011;23632;48.826;15.176;2022-08-19T11:00:55;0.20;;;0.20;;
37793;SDS011;23632;48.826;15.176;2022-08-19T11:03:25;0.22;;;0.22;;
37793;SDS011;23632;48.826;15.176;2022-08-19T11:06:00;0.20;;;0.20;;
37793;SDS011;23632;48.826;15.176;2022-08-19T11:08:33;0.30;;;0.30;;
37793;SDS011;23632;48.826;15.176;2022-08-19T11:11:04;0.22;;;0.22;;
37793;SDS011;23632;48.826;15.176;2022-08-19T11:13:34;0.30;;;0.30;;
37793;SDS011;23632;48.826;15.176;2022-08-19T11:16:06;0.30;;;0.30;;
37793;SDS011;23632;48.826;15.176;2022-08-19T11:18:38;0.20;;;0.20;;
37793;SDS011;23632;48.826;15.176;2022-08-19T11:21:12;0.22;;;0.22;;
37793;SDS011;23632;48.826;15.176;2022-08-19T11:23:46;0.30;;;0.30;;
37793;SDS011;23632;48.826;15.176;2022-08-19T11:26:16;0.20;;;0.20;;
37793;SDS011;23632;48.826;15.176;2022-08-19T11:28:44;0.30;;;0.30;;
37793;SDS011;23632;48.826;15.176;2022-08-19T11:31:13;0.20;;;0.20;;
37793;SDS011;23632;48.826;15.176;2022-08-19T11:33:43;0.38;;;0.38;;
37793;SDS011;23632;48.826;15.176;2022-08-19T11:36:13;0.28;;;0.28;;
37793;SDS011;23632;48.826;15.176;2022-08-19T11:38:41;0.20;;;0.20;;
37793;SDS011;23632;48.826;15.176;2022-08-19T11:41:10;0.28;;;0.28;;
37793;SDS011;23632;48.826;15.176;2022-08-19T11:43:37;0.20;;;0.20;;
37793;SDS011;23632;48.826;15.176;2022-08-19T11:46:07;0.25;;;0.25;;
37793;SDS011;23632;48.826;15.176;2022-08-19T11:48:38;0.20;;;0.20;;
37793;SDS011;23632;48.826;15.176;2022-08-19T11:51:10;0.30;;;0.30;;
37793;SDS011;23632;48.826;15.176;2022-08-19T11:53:40;0.20;;;0.20;;
37793;SDS011;23632;48.826;15.176;2022-08-19T11:56:08;0.28;;;0.28;;
37793;SDS011;23632;48.826;15.176;2022-08-19T11:58:36;0.20;;;0.20;;
37793;SDS011;23632;48.826;15.176;2022-08-19T12:01:07;0.20;;;0.20;;
37793;SDS011;23632;48.826;15.176;2022-08-19T12:03:35;0.20;;;0.20;;
37793;SDS011;23632;48.826;15.176;2022-08-19T12:06:08;0.25;;;0.25;;
37793;SDS011;23632;48.826;15.176;2022-08-19T12:08:39;0.30;;;0.30;;
37793;SDS011;23632;48.826;15.176;2022-08-19T12:11:08;0.25;;;0.25;;
37793;SDS011;23632;48.826;15.176;2022-08-19T12:13:37;0.20;;;0.20;;
37793;SDS011;23632;48.826;15.176;2022-08-19T12:16:09;0.30;;;0.30;;
37793;SDS011;23632;48.826;15.176;2022-08-19T12:18:58;0.30;;;0.30;;
37793;SDS011;23632;48.826;15.176;2022-08-19T12:21:30;0.20;;;0.20;;
37793;SDS011;23632;48.826;15.176;2022-08-19T12:24:01;0.20;;;0.20;;
37793;SDS011;23632;48.826;15.176;2022-08-19T12:26:31;0.30;;;0.30;;
37793;SDS011;23632;48.826;15.176;2022-08-19T12:29:18;0.20;;;0.20;;
37793;SDS011;23632;48.826;15.176;2022-08-19T12:31:49;0.20;;;0.20;;
37793;SDS011;23632;48.826;15.176;2022-08-19T12:34:17;0.15;;;0.15;;
37793;SDS011;23632;48.826;15.176;2022-08-19T12:36:46;0.30;;;0.30;;
37793;SDS011;23632;48.826;15.176;2022-08-19T12:39:15;0.20;;;0.20;;
37793;SDS011;23632;48.826;15.176;2022-08-19T12:41:43;0.30;;;0.30;;
37793;SDS011;23632;48.826;15.176;2022-08-19T12:44:19;0.20;;;0.20;;
37793;SDS011;23632;48.826;15.176;2022-08-19T12:46:55;0.20;;;0.20;;
37793;SDS011;23632;48.826;15.176;2022-08-19T12:49:23;0.20;;;0.20;;
37793;SDS011;23632;48.826;15.176;2022-08-19T12:52:11;0.30;;;0.30;;
37793;SDS011;23632;48.826;15.176;2022-08-19T12:54:43;0.30;;;0.30;;
37793;SDS011;23632;48.826;15.176;2022-08-19T12:57:10;0.20;;;0.20;;
37793;SDS011;23632;48.826;15.176;2022-08-19T12:59:38;0.20;;;0.20;;
37793;SDS011;23632;48.826;15.176;2022-08-19T13:02:05;0.20;;;0.20;;
37793;SDS011;23632;48.826;15.176;2022-08-19T13:04:34;0.20;;;0.20;;
37793;SDS011;23632;48.826;15.176;2022-08-19T13:07:04;0.20;;;0.20;;
37793;SDS011;23632;48.826;15.176;2022-08-19T13:09:31;0.30;;;0.30;;
37793;SDS011;23632;48.826;15.176;2022-08-19T13:11:58;0.50;;;0.50;;
37793;SDS011;23632;48.826;15.176;2022-08-19T13:14:28;0.30;;;0.30;;
37793;SDS011;23632;48.826;15.176;2022-08-19T13:16:59;0.30;;;0.30;;
37793;SDS011;23632;48.826;15.176;2022-08-19T13:19:26;0.20;;;0.20;;
37793;SDS011;23632;48.826;15.176;2022-08-19T13:21:54;0.30;;;0.30;;
37793;SDS011;23632;48.826;15.176;2022-08-19T13:24:25;0.20;;;0.20;;
37793;SDS011;23632;48.826;15.176;2022-08-19T13:26:59;0.30;;;0.30;;
37793;SDS011;23632;48.826;15.176;2022-08-19T13:29:28;0.20;;;0.20;;
37793;SDS011;23632;48.826;15.176;2022-08-19T13:32:13;0.22;;;0.22;;
37793;SDS011;23632;48.826;15.176;2022-08-19T13:35:01;0.30;;;0.30;;
37793;SDS011;23632;48.826;15.176;2022-08-19T13:37:30;0.30;;;0.30;;
37793;SDS011;23632;48.826;15.176;2022-08-19T13:42:48;0.25;;;0.25;;
37793;SDS011;23632;48.826;15.176;2022-08-19T13:45:19;0.30;;;0.30;;
37793;SDS011;23632;48.826;15.176;2022-08-19T13:47:53;0.30;;;0.30;;
37793;SDS011;23632;48.826;15.176;2022-08-19T13:50:26;0.20;;;0.20;;
37793;SDS011;23632;48.826;15.176;2022-08-19T13:52:57;0.20;;;0.20;;
37793;SDS011;23632;48.826;15.176;2022-08-19T13:55:26;0.20;;;0.20;;
37793;SDS011;23632;48.826;15.176;2022-08-19T13:57:54;0.30;;;0.30;;
37793;SDS011;23632;48.826;15.176;2022-08-19T14:00:26;0.30;;;0.30;;
37793;SDS011;23632;48.826;15.176;2022-08-19T14:02:57;0.20;;;0.20;;
37793;SDS011;23632;48.826;15.176;2022-08-19T14:05:25;0.30;;;0.30;;
37793;SDS011;23632;48.826;15.176;2022-08-19T14:07:54;0.30;;;0.30;;
37793;SDS011;23632;48.826;15.176;2022-08-19T14:10:22;0.30;;;0.30;;
37793;SDS011;23632;48.826;15.176;2022-08-19T14:12:55;0.30;;;0.30;;
37793;SDS011;23632;48.826;15.176;2022-08-19T14:15:24;0.22;;;0.22;;
37793;SDS011;23632;48.826;15.176;2022-08-19T14:17:53;0.25;;;0.25;;
37793;SDS011;23632;48.826;15.176;2022-08-19T14:20:21;0.20;;;0.20;;
37793;SDS011;23632;48.826;15.176;2022-08-19T14:22:51;0.30;;;0.30;;
37793;SDS011;23632;48.826;15.176;2022-08-19T14:25:20;0.25;;;0.25;;
37793;SDS011;23632;48.826;15.176;2022-08-19T14:27:52;0.25;;;0.25;;
37793;SDS011;23632;48.826;15.176;2022-08-19T14:30:22;0.22;;;0.22;;
37793;SDS011;23632;48.826;15.176;2022-08-19T14:32:54;0.25;;;0.25;;
37793;SDS011;23632;48.826;15.176;2022-08-19T14:35:22;0.20;;;0.20;;
37793;SDS011;23632;48.826;15.176;2022-08-19T14:37:50;0.20;;;0.20;;
37793;SDS011;23632;48.826;15.176;2022-08-19T14:40:22;0.20;;;0.20;;
37793;SDS011;23632;48.826;15.176;2022-08-19T14:42:53;0.20;;;0.20;;
37793;SDS011;23632;48.826;15.176;2022-08-19T14:45:31;0.30;;;0.30;;
37793;SDS011;23632;48.826;15.176;2022-08-19T14:48:06;0.30;;;0.30;;
37793;SDS011;23632;48.826;15.176;2022-08-19T14:50:44;0.20;;;0.20;;
37793;SDS011;23632;48.826;15.176;2022-08-19T14:53:13;0.20;;;0.20;;
37793;SDS011;23632;48.826;15.176;2022-08-19T14:55:42;0.20;;;0.20;;
37793;SDS011;23632;48.826;15.176;2022-08-19T14:58:11;0.30;;;0.30;;
37793;SDS011;23632;48.826;15.176;2022-08-19T15:00:56;0.30;;;0.30;;
37793;SDS011;23632;48.826;15.176;2022-08-19T15:03:26;0.25;;;0.25;;
37793;SDS011;23632;48.826;15.176;2022-08-19T15:05:54;0.30;;;0.30;;
37793;SDS011;23632;48.826;15.176;2022-08-19T15:08:24;0.20;;;0.20;;
37793;SDS011;23632;48.826;15.176;2022-08-19T15:10:53;0.30;;;0.30;;